createdAt,value
2019-05-03T00:01:49.646Z,6.60
2019-05-03T00:04:22.378Z,6.60
2019-05-03T00:06:53.712Z,5.70
2019-05-03T00:09:25.168Z,5.60
2019-05-03T00:11:56.374Z,6.37
2019-05-03T00:14:27.873Z,5.70
2019-05-03T00:16:59.301Z,6.80
2019-05-03T00:19:32.590Z,5.67
2019-05-03T00:22:04.226Z,6.00
2019-05-03T00:24:35.678Z,6.70
2019-05-03T00:27:06.968Z,6.00
2019-05-03T00:29:38.233Z,5.93
2019-05-03T00:32:09.529Z,5.63
2019-05-03T00:34:46.472Z,6.50
2019-05-03T00:37:19.142Z,6.50
2019-05-03T00:40:05.163Z,6.87
2019-05-03T00:42:37.155Z,7.20
2019-05-03T00:45:08.989Z,5.33
2019-05-03T00:47:42.035Z,6.70
2019-05-03T00:50:13.160Z,5.73
2019-05-03T00:52:44.419Z,6.77
2019-05-03T00:55:19.182Z,6.23
2019-05-03T00:57:49.600Z,5.30
2019-05-03T01:00:21.834Z,5.57
2019-05-03T01:02:53.321Z,5.53
2019-05-03T01:05:24.425Z,5.90
2019-05-03T01:07:55.709Z,5.80
2019-05-03T01:10:27.099Z,5.93
2019-05-03T01:12:58.557Z,6.27
2019-05-03T01:15:55.000Z,6.37
2019-05-03T01:18:26.022Z,6.43
2019-05-03T01:20:57.206Z,6.47
2019-05-03T01:23:28.436Z,6.87
2019-05-03T01:26:00.047Z,7.23
2019-05-03T01:28:32.339Z,6.50
2019-05-03T01:31:03.651Z,6.03
2019-05-03T01:33:34.890Z,6.30
2019-05-03T01:36:06.391Z,6.13
2019-05-03T01:38:37.614Z,6.20
2019-05-03T01:41:08.888Z,5.77
2019-05-03T01:43:41.814Z,6.10
2019-05-03T01:46:13.953Z,6.37
2019-05-03T01:49:22.880Z,6.00
2019-05-03T01:52:02.210Z,5.93
2019-05-03T01:54:33.788Z,6.20
2019-05-03T01:57:05.005Z,6.43
2019-05-03T01:59:36.211Z,6.50
2019-05-03T02:02:42.001Z,5.83
2019-05-03T02:05:38.028Z,6.83
2019-05-03T02:08:12.484Z,6.20
2019-05-03T02:10:43.744Z,6.50
2019-05-03T02:13:15.004Z,6.60
2019-05-03T02:15:46.227Z,5.83
2019-05-03T02:18:17.285Z,6.47
2019-05-03T02:20:48.560Z,6.23
2019-05-03T02:23:19.775Z,6.43
2019-05-03T02:25:58.345Z,6.80
2019-05-03T02:28:23.862Z,6.80
2019-05-03T02:30:55.351Z,6.53
2019-05-03T02:33:26.669Z,6.30
2019-05-03T02:35:57.921Z,7.13
2019-05-03T02:38:29.495Z,5.87
2019-05-03T02:41:02.950Z,6.50
2019-05-03T02:43:37.959Z,6.10
2019-05-03T02:46:40.331Z,5.50
2019-05-03T02:49:18.402Z,5.23
2019-05-03T02:51:51.103Z,5.70
2019-05-03T02:54:22.086Z,6.17
2019-05-03T02:56:55.774Z,6.30
2019-05-03T02:59:26.580Z,5.70
2019-05-03T03:01:58.227Z,5.37
2019-05-03T03:04:35.152Z,5.67
2019-05-03T03:07:06.967Z,7.40
2019-05-03T03:09:38.186Z,5.37
2019-05-03T03:12:09.814Z,5.60
2019-05-03T03:14:42.037Z,5.93
2019-05-03T03:17:14.918Z,5.20
2019-05-03T03:19:48.884Z,4.90
2019-05-03T03:22:21.031Z,5.00
2019-05-03T03:24:55.910Z,5.30
2019-05-03T03:27:29.887Z,5.30
2019-05-03T03:30:29.072Z,7.67
2019-05-03T03:33:00.483Z,5.30
2019-05-03T03:35:38.392Z,5.03
2019-05-03T03:38:07.552Z,4.30
2019-05-03T03:40:40.642Z,5.07
2019-05-03T03:43:15.713Z,4.70
2019-05-03T03:45:48.242Z,5.23
2019-05-03T03:48:21.580Z,4.53
2019-05-03T03:50:56.228Z,4.60
2019-05-03T03:53:29.177Z,4.70
2019-05-03T03:56:02.457Z,4.90
2019-05-03T03:58:35.949Z,5.03
2019-05-03T04:01:06.800Z,4.57
2019-05-03T04:03:38.690Z,4.33
2019-05-03T04:06:09.968Z,3.93
2019-05-03T04:08:41.580Z,4.67
2019-05-03T04:11:15.418Z,4.40
2019-05-03T04:13:46.821Z,4.70
2019-05-03T04:16:40.221Z,4.50
2019-05-03T04:19:17.360Z,4.23
2019-05-03T04:21:48.957Z,4.50
2019-05-03T04:24:20.107Z,4.53
2019-05-03T04:26:56.220Z,4.90
2019-05-03T04:29:26.453Z,4.30
2019-05-03T04:31:57.335Z,4.30
2019-05-03T04:34:28.314Z,4.43
2019-05-03T04:36:59.290Z,4.80
2019-05-03T04:39:30.694Z,4.77
2019-05-03T04:42:01.918Z,4.20
2019-05-03T04:44:35.486Z,4.90
2019-05-03T04:47:06.829Z,5.13
2019-05-03T04:49:38.319Z,4.50
2019-05-03T04:52:09.580Z,4.53
2019-05-03T04:54:52.012Z,4.40
2019-05-03T04:57:39.308Z,5.07
2019-05-03T04:59:59.119Z,5.07
2019-05-03T05:02:31.912Z,5.20
2019-05-03T05:05:05.826Z,5.03
2019-05-03T05:07:36.525Z,6.93
2019-05-03T05:10:08.896Z,14.27
2019-05-03T05:12:40.137Z,8.10
2019-05-03T05:15:11.378Z,9.10
2019-05-03T05:17:51.777Z,8.70
2019-05-03T05:20:29.624Z,13.37
2019-05-03T05:23:00.550Z,9.37
2019-05-03T05:25:35.772Z,9.10
2019-05-03T05:28:35.519Z,8.50
2019-05-03T05:31:07.159Z,8.73
2019-05-03T05:33:38.226Z,9.80
2019-05-03T05:36:09.589Z,8.63
2019-05-03T05:38:41.082Z,9.60
2019-05-03T05:41:12.011Z,8.30
2019-05-03T05:43:44.681Z,9.30
2019-05-03T05:46:16.216Z,9.90
2019-05-03T05:48:49.760Z,10.43
2019-05-03T05:51:20.776Z,8.70
2019-05-03T05:53:51.885Z,9.83
2019-05-03T05:56:38.164Z,10.63
2019-05-03T05:59:16.558Z,11.63
2019-05-03T06:01:55.643Z,10.90
2019-05-03T06:04:26.661Z,11.10
2019-05-03T06:07:15.661Z,10.67
2019-05-03T06:10:05.864Z,11.47
2019-05-03T06:12:45.918Z,10.90
2019-05-03T06:15:37.953Z,11.83
2019-05-03T06:18:15.680Z,10.73
2019-05-03T06:20:54.401Z,11.37
2019-05-03T06:23:32.235Z,11.30
2019-05-03T06:26:05.261Z,12.17
2019-05-03T06:28:36.779Z,12.13
2019-05-03T06:31:14.908Z,11.57
2019-05-03T06:33:45.969Z,12.10
2019-05-03T06:36:17.339Z,11.73
2019-05-03T06:38:48.405Z,11.07
2019-05-03T06:41:19.564Z,12.90
2019-05-03T06:43:50.616Z,12.77
2019-05-03T06:46:40.540Z,12.93
2019-05-03T06:49:11.496Z,12.03
2019-05-03T06:51:45.581Z,12.60
2019-05-03T06:54:15.959Z,13.00
2019-05-03T06:56:46.958Z,14.73
2019-05-03T06:59:26.528Z,13.00
2019-05-03T07:02:16.405Z,13.10
2019-05-03T07:04:50.578Z,12.73
2019-05-03T07:07:40.339Z,11.35
2019-05-03T07:10:20.137Z,12.73
2019-05-03T07:13:01.988Z,19.10
2019-05-03T07:15:34.968Z,14.70
2019-05-03T07:18:05.966Z,12.50
2019-05-03T07:20:54.981Z,12.93
2019-05-03T07:23:24.894Z,14.27
2019-05-03T07:25:56.012Z,16.40
2019-05-03T07:28:27.109Z,17.27
2019-05-03T07:30:58.506Z,15.03
2019-05-03T07:33:31.672Z,16.00
2019-05-03T07:36:05.123Z,16.00
2019-05-03T07:38:36.137Z,14.20
2019-05-03T07:41:07.226Z,14.90
2019-05-03T07:43:38.408Z,13.47
2019-05-03T07:46:09.721Z,14.07
2019-05-03T07:48:40.968Z,14.00
2019-05-03T07:51:14.456Z,15.90
2019-05-03T07:53:45.805Z,15.57
2019-05-03T07:56:18.697Z,15.83
2019-05-03T07:59:00.099Z,15.40
2019-05-03T08:01:32.002Z,14.93
2019-05-03T08:04:05.434Z,15.73
2019-05-03T08:06:36.717Z,14.60
2019-05-03T08:09:09.931Z,15.20
2019-05-03T08:11:41.114Z,16.83
2019-05-03T08:14:12.033Z,16.30
2019-05-03T08:16:42.897Z,17.80
2019-05-03T08:19:15.194Z,17.33
2019-05-03T08:21:46.602Z,18.00
2019-05-03T08:24:17.517Z,21.20
2019-05-03T08:26:49.881Z,19.87
2019-05-03T08:29:21.076Z,20.10
2019-05-03T08:32:05.093Z,20.10
2019-05-03T08:35:00.973Z,19.50
2019-05-03T08:37:50.426Z,17.43
2019-05-03T08:40:24.434Z,18.03
2019-05-03T08:42:55.891Z,19.60
2019-05-03T08:45:27.117Z,18.83
2019-05-03T08:47:58.045Z,18.60
2019-05-03T08:50:30.654Z,21.70
2019-05-03T08:53:04.898Z,18.07
2019-05-03T08:55:35.370Z,20.90
2019-05-03T08:58:06.854Z,21.13
2019-05-03T09:00:40.006Z,21.20
2019-05-03T09:03:11.359Z,22.47
2019-05-03T09:05:45.387Z,20.33
2019-05-03T09:08:15.816Z,22.53
2019-05-03T09:10:54.516Z,23.03
2019-05-03T09:14:04.551Z,23.97
2019-05-03T09:16:36.231Z,22.67
2019-05-03T09:19:08.008Z,25.60
2019-05-03T09:21:39.499Z,25.50
2019-05-03T09:24:10.645Z,23.77
2019-05-03T09:26:41.847Z,29.87
2019-05-03T09:29:14.806Z,30.10
2019-05-03T09:31:49.182Z,28.30
2019-05-03T09:34:21.033Z,29.97
2019-05-03T09:36:52.404Z,30.00
2019-05-03T09:39:24.546Z,29.20
2019-05-03T09:41:56.043Z,32.20
2019-05-03T09:44:27.572Z,28.83
2019-05-03T09:46:58.884Z,31.53
2019-05-03T09:49:30.059Z,33.20
2019-05-03T09:52:02.878Z,31.00
2019-05-03T09:54:40.326Z,27.70
2019-05-03T09:57:11.582Z,26.10
2019-05-03T09:59:55.756Z,24.50
2019-05-03T10:02:27.097Z,22.40
2019-05-03T10:04:58.753Z,41.70
2019-05-03T10:07:30.189Z,30.10
2019-05-03T10:10:01.316Z,26.50
2019-05-03T10:12:33.978Z,24.77
2019-05-03T10:15:06.545Z,21.70
2019-05-03T10:17:46.588Z,17.60
2019-05-03T10:20:19.124Z,11.87
2019-05-03T10:22:50.311Z,13.40
2019-05-03T10:25:22.001Z,11.63
2019-05-03T10:27:54.939Z,15.77
2019-05-03T10:30:27.919Z,13.40
2019-05-03T10:33:07.754Z,12.30
2019-05-03T10:35:38.842Z,10.03
2019-05-03T10:38:10.158Z,9.00
2019-05-03T10:40:41.479Z,11.50
2019-05-03T10:43:13.150Z,12.53
2019-05-03T10:45:55.777Z,11.57
2019-05-03T10:48:26.781Z,9.77
2019-05-03T10:50:58.202Z,9.53
2019-05-03T10:53:34.628Z,11.13
2019-05-03T10:56:23.240Z,11.00
2019-05-03T10:59:11.284Z,40.77
2019-05-03T11:02:07.403Z,8.63
2019-05-03T11:04:38.909Z,10.60
2019-05-03T11:07:10.277Z,11.13
2019-05-03T11:09:49.830Z,10.60
2019-05-03T11:12:16.098Z,9.57
2019-05-03T11:14:47.572Z,11.23
2019-05-03T11:17:18.912Z,12.50
2019-05-03T11:19:50.293Z,10.57
2019-05-03T11:22:21.138Z,11.20
2019-05-03T11:24:54.506Z,11.73
2019-05-03T11:27:30.378Z,10.50
2019-05-03T11:30:01.731Z,13.17
2019-05-03T11:33:00.679Z,12.88
2019-05-03T11:35:45.646Z,14.83
2019-05-03T11:38:38.455Z,13.90
2019-05-03T11:41:10.344Z,14.20
2019-05-03T11:43:41.549Z,12.50
2019-05-03T11:46:13.024Z,9.00
2019-05-03T11:48:45.474Z,11.13
2019-05-03T11:51:16.907Z,8.77
2019-05-03T11:53:49.378Z,9.30
2019-05-03T11:56:20.370Z,9.30
2019-05-03T11:58:55.032Z,10.00
2019-05-03T12:01:37.298Z,9.67
2019-05-03T12:04:09.108Z,12.10
2019-05-03T12:06:40.340Z,10.10
2019-05-03T12:09:11.738Z,10.90
2019-05-03T12:11:43.040Z,9.00
2019-05-03T12:14:15.471Z,8.40
2019-05-03T12:17:14.610Z,10.63
2019-05-03T12:19:34.672Z,9.30
2019-05-03T12:22:07.035Z,9.13
2019-05-03T12:24:39.332Z,9.60
2019-05-03T12:27:10.804Z,9.63
2019-05-03T12:29:44.587Z,11.27
2019-05-03T12:32:15.249Z,13.13
2019-05-03T12:34:46.726Z,7.90
2019-05-03T12:37:18.403Z,8.80
2019-05-03T12:39:49.807Z,9.10
2019-05-03T12:42:20.848Z,10.43
2019-05-03T12:44:52.181Z,10.10
2019-05-03T12:47:25.009Z,10.67
2019-05-03T12:49:56.202Z,9.37
2019-05-03T12:52:27.525Z,11.73
2019-05-03T12:54:59.224Z,11.37
2019-05-03T12:57:30.480Z,9.57
2019-05-03T13:00:27.278Z,10.63
2019-05-03T13:03:05.178Z,13.90
2019-05-03T13:05:36.513Z,13.53
2019-05-03T13:08:32.464Z,10.97
2019-05-03T13:11:05.291Z,12.57
2019-05-03T13:13:36.759Z,15.10
2019-05-03T13:16:09.359Z,10.90
2019-05-03T13:18:40.802Z,12.93
2019-05-03T13:21:13.320Z,10.10
2019-05-03T13:23:45.325Z,7.77
2019-05-03T13:26:16.635Z,9.77
2019-05-03T13:28:47.799Z,9.17
2019-05-03T13:31:19.142Z,8.60
2019-05-03T13:33:50.644Z,8.07
2019-05-03T13:36:21.714Z,8.23
2019-05-03T13:38:54.654Z,8.67
2019-05-03T13:41:25.801Z,8.17
2019-05-03T13:43:57.076Z,8.30
2019-05-03T13:46:28.310Z,8.10
2019-05-03T13:48:59.513Z,7.20
2019-05-03T13:51:30.975Z,8.67
2019-05-03T13:54:02.159Z,6.50
2019-05-03T13:56:35.165Z,5.57
2019-05-03T13:59:18.529Z,5.70
2019-05-03T14:01:39.369Z,5.33
2019-05-03T14:04:11.168Z,5.60
2019-05-03T14:06:44.525Z,5.80
2019-05-03T14:09:15.310Z,5.03
2019-05-03T14:11:46.520Z,6.53
2019-05-03T14:14:18.623Z,7.73
2019-05-03T14:16:49.894Z,7.83
2019-05-03T14:19:28.057Z,6.53
2019-05-03T14:22:01.535Z,7.33
2019-05-03T14:24:32.717Z,6.77
2019-05-03T14:27:05.578Z,6.80
2019-05-03T14:29:37.157Z,6.70
2019-05-03T14:32:08.928Z,13.43
2019-05-03T14:34:40.206Z,5.53
2019-05-03T14:37:12.230Z,5.40
2019-05-03T14:39:46.760Z,5.00
2019-05-03T14:42:16.633Z,6.00
2019-05-03T14:44:47.868Z,11.13
2019-05-03T14:47:18.864Z,5.00
2019-05-03T14:49:49.945Z,5.93
2019-05-03T14:52:21.084Z,10.43
2019-05-03T14:54:54.261Z,8.20
2019-05-03T14:57:35.476Z,5.23
2019-05-03T15:00:25.826Z,10.37
2019-05-03T15:03:04.691Z,10.80
2019-05-03T15:05:36.177Z,5.70
2019-05-03T15:08:07.582Z,6.20
2019-05-03T15:10:38.956Z,5.20
2019-05-03T15:13:10.432Z,5.40
2019-05-03T15:15:41.610Z,8.10
2019-05-03T15:18:14.956Z,4.67
2019-05-03T15:20:46.404Z,4.50
2019-05-03T15:23:21.572Z,7.40
2019-05-03T15:25:54.615Z,4.97
2019-05-03T15:28:25.977Z,4.33
2019-05-03T15:30:57.280Z,5.80
2019-05-03T15:33:28.723Z,4.50
2019-05-03T15:36:00.255Z,5.47
2019-05-03T15:38:31.504Z,5.20
2019-05-03T15:41:05.182Z,5.00
2019-05-03T15:43:51.584Z,4.57
2019-05-03T15:46:40.968Z,5.33
2019-05-03T15:49:12.240Z,6.70
2019-05-03T15:51:44.616Z,5.53
2019-05-03T15:54:16.079Z,7.60
2019-05-03T15:56:47.588Z,8.80
2019-05-03T15:59:18.701Z,7.47
2019-05-03T16:01:49.919Z,6.50
2019-05-03T16:04:21.276Z,6.80
2019-05-03T16:06:52.657Z,7.30
2019-05-03T16:09:24.586Z,7.30
2019-05-03T16:11:56.417Z,7.80
2019-05-03T16:14:28.588Z,7.80
2019-05-03T16:16:59.666Z,7.50
2019-05-03T16:19:31.058Z,6.07
2019-05-03T16:22:02.448Z,6.60
2019-05-03T16:24:35.503Z,7.23
2019-05-03T16:27:26.385Z,7.83
2019-05-03T16:29:59.124Z,6.20
2019-05-03T16:32:30.605Z,10.77
2019-05-03T16:35:02.036Z,6.33
2019-05-03T16:37:34.521Z,7.43
2019-05-03T16:40:06.103Z,5.97
2019-05-03T16:42:37.296Z,6.20
2019-05-03T16:45:08.413Z,6.40
2019-05-03T16:47:39.736Z,6.70
2019-05-03T16:50:11.528Z,9.03
2019-05-03T16:52:42.864Z,6.50
2019-05-03T16:55:16.151Z,6.20
2019-05-03T16:57:47.527Z,5.50
2019-05-03T17:00:18.812Z,6.47
2019-05-03T17:02:50.128Z,5.70
2019-05-03T17:05:27.624Z,6.20
2019-05-03T17:08:16.408Z,6.73
2019-05-03T17:10:49.885Z,5.50
2019-05-03T17:13:20.820Z,5.73
2019-05-03T17:15:52.150Z,7.07
2019-05-03T17:18:24.628Z,6.50
2019-05-03T17:20:57.245Z,6.20
2019-05-03T17:23:28.739Z,6.77
2019-05-03T17:26:00.273Z,6.17
2019-05-03T17:28:31.591Z,6.30
2019-05-03T17:31:04.417Z,6.23
2019-05-03T17:33:35.750Z,6.50
2019-05-03T17:36:06.948Z,6.00
2019-05-03T17:38:38.445Z,6.20
2019-05-03T17:41:27.490Z,5.97
2019-05-03T17:44:15.937Z,6.67
2019-05-03T17:46:48.206Z,5.90
2019-05-03T17:49:19.312Z,5.90
2019-05-03T17:52:21.208Z,6.00
2019-05-03T17:55:11.954Z,5.23
2019-05-03T17:58:01.069Z,7.10
2019-05-03T18:00:41.179Z,6.80
2019-05-03T18:03:14.253Z,5.97
2019-05-03T18:05:50.770Z,6.30
2019-05-03T18:08:39.459Z,5.77
2019-05-03T18:11:14.725Z,5.57
2019-05-03T18:13:46.499Z,6.57
2019-05-03T18:16:17.639Z,5.80
2019-05-03T18:18:49.028Z,6.73
2019-05-03T18:21:20.100Z,6.90
2019-05-03T18:23:51.655Z,6.60
2019-05-03T18:26:26.557Z,5.20
2019-05-03T18:28:58.084Z,7.10
2019-05-03T18:31:29.329Z,5.57
2019-05-03T18:34:00.680Z,6.30
2019-05-03T18:36:34.630Z,6.33
2019-05-03T18:39:09.424Z,5.70
2019-05-03T18:41:42.032Z,5.87
2019-05-03T18:44:28.857Z,4.90
2019-05-03T18:47:05.313Z,5.27
2019-05-03T18:49:36.568Z,5.10
2019-05-03T18:52:08.038Z,5.03
2019-05-03T18:54:39.310Z,3.73
2019-05-03T18:57:11.842Z,3.87
2019-05-03T18:59:44.969Z,3.90
2019-05-03T19:02:16.885Z,4.40
2019-05-03T19:04:49.999Z,3.43
2019-05-03T19:07:42.927Z,4.30
2019-05-03T19:10:29.184Z,5.83
2019-05-03T19:13:19.669Z,5.17
2019-05-03T19:15:51.045Z,6.83
2019-05-03T19:18:30.120Z,5.30
2019-05-03T19:21:01.648Z,6.27
2019-05-03T19:23:33.059Z,6.20
2019-05-03T19:26:05.531Z,5.10
2019-05-03T19:28:37.489Z,7.00
2019-05-03T19:31:09.437Z,5.60
2019-05-03T19:33:41.099Z,5.83
2019-05-03T19:36:12.617Z,4.90
2019-05-03T19:38:45.341Z,6.83
2019-05-03T19:41:17.063Z,8.97
2019-05-03T19:43:48.572Z,7.53
2019-05-03T19:46:19.805Z,6.60
2019-05-03T19:48:51.203Z,7.90
2019-05-03T19:51:22.667Z,5.77
2019-05-03T19:53:55.416Z,4.70
2019-05-03T19:56:26.493Z,3.47
2019-05-03T19:59:05.228Z,5.40
2019-05-03T20:02:04.465Z,5.13
2019-05-03T20:05:00.796Z,3.30
2019-05-03T20:07:41.328Z,4.40
2019-05-03T20:10:14.689Z,5.67
2019-05-03T20:12:46.368Z,4.60
2019-05-03T20:15:17.887Z,7.10
2019-05-03T20:17:57.520Z,5.13
2019-05-03T20:20:22.271Z,4.90
2019-05-03T20:22:58.758Z,7.43
2019-05-03T20:25:28.659Z,4.97
2019-05-03T20:28:00.109Z,3.97
2019-05-03T20:30:31.585Z,3.83
2019-05-03T20:33:02.921Z,3.83
2019-05-03T20:35:35.634Z,5.50
2019-05-03T20:38:07.341Z,4.57
2019-05-03T20:40:38.896Z,4.00
2019-05-03T20:43:22.830Z,4.67
2019-05-03T20:46:05.033Z,5.40
2019-05-03T20:48:37.209Z,5.53
2019-05-03T20:51:08.476Z,5.00
2019-05-03T20:53:40.336Z,8.40
2019-05-03T20:56:11.676Z,7.93
2019-05-03T20:58:44.651Z,7.80
2019-05-03T21:01:16.068Z,7.20
2019-05-03T21:03:47.353Z,7.87
2019-05-03T21:06:32.449Z,7.30
2019-05-03T21:08:54.221Z,8.30
2019-05-03T21:11:25.457Z,7.43
2019-05-03T21:13:56.739Z,8.03
2019-05-03T21:16:49.492Z,7.50
2019-05-03T21:19:52.608Z,9.10
2019-05-03T21:22:28.949Z,6.87
2019-05-03T21:25:19.000Z,6.77
2019-05-03T21:27:50.129Z,6.10
2019-05-03T21:30:21.475Z,7.33
2019-05-03T21:32:52.516Z,6.43
2019-05-03T21:35:26.284Z,5.87
2019-05-03T21:37:56.406Z,4.20
2019-05-03T21:40:27.370Z,5.07
2019-05-03T21:42:58.635Z,5.17
2019-05-03T21:45:39.443Z,3.03
2019-05-03T21:48:17.707Z,3.60
2019-05-03T21:50:49.410Z,4.33
2019-05-03T21:53:20.563Z,3.27
2019-05-03T21:55:53.161Z,3.73
2019-05-03T21:58:25.044Z,9.97
2019-05-03T22:01:05.114Z,3.33
2019-05-03T22:03:37.672Z,3.57
2019-05-03T22:06:09.016Z,6.20
2019-05-03T22:08:40.875Z,3.67
2019-05-03T22:11:14.688Z,4.33
2019-05-03T22:13:47.112Z,5.20
2019-05-03T22:16:36.183Z,3.93
2019-05-03T22:19:07.417Z,6.93
2019-05-03T22:21:48.039Z,4.20
2019-05-03T22:24:47.498Z,3.90
2019-05-03T22:27:21.556Z,5.77
2019-05-03T22:29:54.484Z,4.03
2019-05-03T22:32:27.148Z,6.13
2019-05-03T22:34:58.469Z,4.67
2019-05-03T22:37:29.836Z,4.80
2019-05-03T22:40:01.114Z,3.90
2019-05-03T22:42:34.435Z,4.10
2019-05-03T22:45:06.054Z,5.63
2019-05-03T22:47:37.124Z,4.70
2019-05-03T22:50:08.525Z,4.10
2019-05-03T22:52:41.120Z,3.67
2019-05-03T22:55:15.286Z,3.40
2019-05-03T22:57:46.596Z,3.67
2019-05-03T23:00:17.803Z,3.80
2019-05-03T23:02:49.829Z,3.20
2019-05-03T23:05:20.835Z,3.40
2019-05-03T23:07:52.028Z,2.90
2019-05-03T23:10:25.529Z,2.70
2019-05-03T23:12:56.203Z,2.67
2019-05-03T23:15:27.086Z,3.13
2019-05-03T23:17:58.484Z,2.70
2019-05-03T23:20:39.103Z,2.70
2019-05-03T23:23:28.863Z,3.20
2019-05-03T23:26:00.089Z,2.63
2019-05-03T23:28:31.299Z,3.30
2019-05-03T23:31:02.464Z,6.70
2019-05-03T23:33:34.462Z,3.30
2019-05-03T23:36:05.657Z,3.53
2019-05-03T23:38:36.712Z,4.00
2019-05-03T23:41:07.645Z,3.33
2019-05-03T23:43:38.685Z,2.87
2019-05-03T23:46:10.713Z,2.30
2019-05-03T23:48:41.898Z,2.63
2019-05-03T23:51:31.784Z,3.67
2019-05-03T23:54:05.427Z,4.03
2019-05-03T23:56:36.588Z,2.90
2019-05-03T23:59:07.628Z,2.77
